sensor_id;sensor_type;location;lat;lon;timestamp;pressure;altitude;pressure_sealevel;temperature
67509;BMP280;54354;44.724;11.284;2023-08-21T00:00:44;101961.94;;;33.44
67509;BMP280;54354;44.724;11.284;2023-08-21T00:03:10;101957.53;;;33.41
67509;BMP280;54354;44.724;11.284;2023-08-21T00:05:35;101955.88;;;33.38
67509;BMP280;54354;44.724;11.284;2023-08-21T00:08:01;101964.84;;;33.39
67509;BMP280;54354;44.724;11.284;2023-08-21T00:10:26;101967.25;;;33.35
67509;BMP280;54354;44.724;11.284;2023-08-21T00:12:52;101962.66;;;33.29
67509;BMP280;54354;44.724;11.284;2023-08-21T00:15:17;101959.91;;;33.29
67509;BMP280;54354;44.724;11.284;2023-08-21T00:17:43;101960.78;;;33.24
67509;BMP280;54354;44.724;11.284;2023-08-21T00:20:09;101955.28;;;33.24
67509;BMP280;54354;44.724;11.284;2023-08-21T00:22:36;101952.19;;;33.20
67509;BMP280;54354;44.724;11.284;2023-08-21T00:25:02;101962.44;;;33.20
67509;BMP280;54354;44.724;11.284;2023-08-21T00:27:28;101965.72;;;33.18
67509;BMP280;54354;44.724;11.284;2023-08-21T00:29:53;101969.00;;;33.17
67509;BMP280;54354;44.724;11.284;2023-08-21T00:32:19;101964.06;;;33.15
67509;BMP280;54354;44.724;11.284;2023-08-21T00:34:44;101969.53;;;33.15
67509;BMP280;54354;44.724;11.284;2023-08-21T00:37:10;101967.38;;;33.14
67509;BMP280;54354;44.724;11.284;2023-08-21T00:39:36;101964.22;;;33.10
67509;BMP280;54354;44.724;11.284;2023-08-21T00:42:02;101970.44;;;33.10
67509;BMP280;54354;44.724;11.284;2023-08-21T00:44:27;101975.00;;;33.08
67509;BMP280;54354;44.724;11.284;2023-08-21T00:46:53;101969.34;;;33.06
67509;BMP280;54354;44.724;11.284;2023-08-21T00:49:19;101964.00;;;33.00
67509;BMP280;54354;44.724;11.284;2023-08-21T00:51:45;101965.81;;;32.97
67509;BMP280;54354;44.724;11.284;2023-08-21T00:54:11;101963.97;;;32.92
67509;BMP280;54354;44.724;11.284;2023-08-21T00:56:37;101976.41;;;32.93
67509;BMP280;54354;44.724;11.284;2023-08-21T00:59:02;101963.06;;;32.90
67509;BMP280;54354;44.724;11.284;2023-08-21T01:01:28;101976.56;;;32.88
67509;BMP280;54354;44.724;11.284;2023-08-21T01:03:54;101961.56;;;32.81
67509;BMP280;54354;44.724;11.284;2023-08-21T01:06:20;101967.56;;;32.80
67509;BMP280;54354;44.724;11.284;2023-08-21T01:09:02;101962.63;;;32.78
67509;BMP280;54354;44.724;11.284;2023-08-21T01:11:42;101945.19;;;32.68
67509;BMP280;54354;44.724;11.284;2023-08-21T01:16:59;101946.84;;;32.63
67509;BMP280;54354;44.724;11.284;2023-08-21T01:19:37;101961.13;;;32.70
67509;BMP280;54354;44.724;11.284;2023-08-21T01:22:03;101966.59;;;32.70
67509;BMP280;54354;44.724;11.284;2023-08-21T01:24:29;101973.19;;;32.67
67509;BMP280;54354;44.724;11.284;2023-08-21T01:26:55;101968.41;;;32.67
67509;BMP280;54354;44.724;11.284;2023-08-21T01:29:20;101970.75;;;32.63
67509;BMP280;54354;44.724;11.284;2023-08-21T01:31:50;101964.31;;;32.53
67509;BMP280;54354;44.724;11.284;2023-08-21T01:34:18;101960.28;;;32.54
67509;BMP280;54354;44.724;11.284;2023-08-21T01:36:44;101961.91;;;32.49
67509;BMP280;54354;44.724;11.284;2023-08-21T01:39:11;101967.41;;;32.49
67509;BMP280;54354;44.724;11.284;2023-08-21T01:41:37;101964.25;;;32.45
67509;BMP280;54354;44.724;11.284;2023-08-21T01:44:02;101973.22;;;32.46
67509;BMP280;54354;44.724;11.284;2023-08-21T01:46:28;101971.75;;;32.45
67509;BMP280;54354;44.724;11.284;2023-08-21T01:48:53;101973.75;;;32.44
67509;BMP280;54354;44.724;11.284;2023-08-21T01:51:19;101975.03;;;32.43
67509;BMP280;54354;44.724;11.284;2023-08-21T01:53:46;101974.84;;;32.41
67509;BMP280;54354;44.724;11.284;2023-08-21T01:56:12;101974.63;;;32.39
67509;BMP280;54354;44.724;11.284;2023-08-21T01:58:37;101972.44;;;32.38
67509;BMP280;54354;44.724;11.284;2023-08-21T02:01:03;101964.94;;;32.38
67509;BMP280;54354;44.724;11.284;2023-08-21T02:03:30;101960.34;;;32.33
67509;BMP280;54354;44.724;11.284;2023-08-21T02:05:56;101957.94;;;32.29
67509;BMP280;54354;44.724;11.284;2023-08-21T02:08:30;101948.41;;;32.23
67509;BMP280;54354;44.724;11.284;2023-08-21T02:10:56;101961.53;;;32.24
67509;BMP280;54354;44.724;11.284;2023-08-21T02:13:22;101959.38;;;32.23
67509;BMP280;54354;44.724;11.284;2023-08-21T02:15:47;101962.09;;;32.23
67509;BMP280;54354;44.724;11.284;2023-08-21T02:18:13;101957.13;;;32.21
67509;BMP280;54354;44.724;11.284;2023-08-21T02:20:39;101954.75;;;32.18
67509;BMP280;54354;44.724;11.284;2023-08-21T02:23:04;101956.97;;;32.19
67509;BMP280;54354;44.724;11.284;2023-08-21T02:25:31;101953.47;;;32.19
67509;BMP280;54354;44.724;11.284;2023-08-21T02:27:56;101962.78;;;32.16
67509;BMP280;54354;44.724;11.284;2023-08-21T02:30:23;101961.50;;;32.17
67509;BMP280;54354;44.724;11.284;2023-08-21T02:32:54;101948.50;;;32.10
67509;BMP280;54354;44.724;11.284;2023-08-21T02:35:22;101951.97;;;32.10
67509;BMP280;54354;44.724;11.284;2023-08-21T02:37:49;101950.75;;;32.19
67509;BMP280;54354;44.724;11.284;2023-08-21T02:40:15;101949.06;;;32.16
67509;BMP280;54354;44.724;11.284;2023-08-21T02:42:40;101953.28;;;32.17
67509;BMP280;54354;44.724;11.284;2023-08-21T02:45:07;101950.88;;;32.13
67509;BMP280;54354;44.724;11.284;2023-08-21T02:47:37;101945.38;;;32.13
67509;BMP280;54354;44.724;11.284;2023-08-21T02:50:04;101946.50;;;32.10
67509;BMP280;54354;44.724;11.284;2023-08-21T02:52:31;101951.75;;;32.08
67509;BMP280;54354;44.724;11.284;2023-08-21T02:54:57;101952.81;;;32.05
67509;BMP280;54354;44.724;11.284;2023-08-21T02:57:24;101947.13;;;32.03
67509;BMP280;54354;44.724;11.284;2023-08-21T02:59:49;101944.22;;;32.01
67509;BMP280;54354;44.724;11.284;2023-08-21T03:02:15;101955.19;;;32.01
67509;BMP280;54354;44.724;11.284;2023-08-21T03:04:41;101952.75;;;31.98
67509;BMP280;54354;44.724;11.284;2023-08-21T03:07:06;101956.25;;;31.98
67509;BMP280;54354;44.724;11.284;2023-08-21T03:09:32;101959.00;;;31.98
67509;BMP280;54354;44.724;11.284;2023-08-21T03:11:57;101951.84;;;31.95
67509;BMP280;54354;44.724;11.284;2023-08-21T03:14:25;101949.03;;;31.87
67509;BMP280;54354;44.724;11.284;2023-08-21T03:16:51;101950.50;;;31.88
67509;BMP280;54354;44.724;11.284;2023-08-21T03:19:16;101953.03;;;31.86
67509;BMP280;54354;44.724;11.284;2023-08-21T03:21:42;101959.78;;;31.85
67509;BMP280;54354;44.724;11.284;2023-08-21T03:24:07;101953.88;;;31.81
67509;BMP280;54354;44.724;11.284;2023-08-21T03:26:34;101955.88;;;31.81
67509;BMP280;54354;44.724;11.284;2023-08-21T03:28:59;101961.16;;;31.79
67509;BMP280;54354;44.724;11.284;2023-08-21T03:31:26;101953.81;;;31.74
67509;BMP280;54354;44.724;11.284;2023-08-21T03:33:51;101951.41;;;31.70
67509;BMP280;54354;44.724;11.284;2023-08-21T03:36:19;101951.97;;;31.69
67509;BMP280;54354;44.724;11.284;2023-08-21T03:38:45;101959.25;;;31.66
67509;BMP280;54354;44.724;11.284;2023-08-21T03:41:11;101954.81;;;31.63
67509;BMP280;54354;44.724;11.284;2023-08-21T03:43:37;101956.06;;;31.62
67509;BMP280;54354;44.724;11.284;2023-08-21T03:46:03;101958.06;;;31.61
67509;BMP280;54354;44.724;11.284;2023-08-21T03:48:29;101957.88;;;31.59
67509;BMP280;54354;44.724;11.284;2023-08-21T03:50:54;101955.88;;;31.60
67509;BMP280;54354;44.724;11.284;2023-08-21T03:53:20;101959.88;;;31.59
67509;BMP280;54354;44.724;11.284;2023-08-21T03:55:45;101969.38;;;31.58
67509;BMP280;54354;44.724;11.284;2023-08-21T03:58:13;101960.75;;;31.54
67509;BMP280;54354;44.724;11.284;2023-08-21T04:00:38;101971.69;;;31.54
67509;BMP280;54354;44.724;11.284;2023-08-21T04:03:04;101968.22;;;31.53
67509;BMP280;54354;44.724;11.284;2023-08-21T04:05:29;101973.50;;;31.51
67509;BMP280;54354;44.724;11.284;2023-08-21T04:07:55;101965.94;;;31.44
67509;BMP280;54354;44.724;11.284;2023-08-21T04:10:21;101966.97;;;31.41
67509;BMP280;54354;44.724;11.284;2023-08-21T04:12:46;101971.00;;;31.40
67509;BMP280;54354;44.724;11.284;2023-08-21T04:15:12;101971.56;;;31.39
67509;BMP280;54354;44.724;11.284;2023-08-21T04:17:37;101969.31;;;31.37
67509;BMP280;54354;44.724;11.284;2023-08-21T04:20:03;101971.84;;;31.35
67509;BMP280;54354;44.724;11.284;2023-08-21T04:22:29;101981.31;;;31.34
67509;BMP280;54354;44.724;11.284;2023-08-21T04:24:54;101980.59;;;31.34
67509;BMP280;54354;44.724;11.284;2023-08-21T04:27:20;101976.91;;;31.31
67509;BMP280;54354;44.724;11.284;2023-08-21T04:29:45;101975.00;;;31.26
67509;BMP280;54354;44.724;11.284;2023-08-21T04:32:11;101976.06;;;31.23
67509;BMP280;54354;44.724;11.284;2023-08-21T04:34:38;101982.28;;;31.23
67509;BMP280;54354;44.724;11.284;2023-08-21T04:37:04;101978.81;;;31.23
67509;BMP280;54354;44.724;11.284;2023-08-21T04:39:31;101978.09;;;31.22
67509;BMP280;54354;44.724;11.284;2023-08-21T04:41:56;101980.31;;;31.24
67509;BMP280;54354;44.724;11.284;2023-08-21T04:44:22;101977.34;;;31.22
67509;BMP280;54354;44.724;11.284;2023-08-21T04:46:48;101976.63;;;31.21
67509;BMP280;54354;44.724;11.284;2023-08-21T04:49:17;101991.66;;;31.28
67509;BMP280;54354;44.724;11.284;2023-08-21T04:51:43;101986.31;;;31.22
67509;BMP280;54354;44.724;11.284;2023-08-21T04:54:09;101998.06;;;31.17
67509;BMP280;54354;44.724;11.284;2023-08-21T04:56:35;101993.38;;;31.18
67509;BMP280;54354;44.724;11.284;2023-08-21T04:59:01;101996.19;;;31.12
67509;BMP280;54354;44.724;11.284;2023-08-21T05:01:29;101996.19;;;31.12
67509;BMP280;54354;44.724;11.284;2023-08-21T05:03:56;101999.13;;;31.14
67509;BMP280;54354;44.724;11.284;2023-08-21T05:06:22;101998.41;;;31.14
67509;BMP280;54354;44.724;11.284;2023-08-21T05:08:49;101999.88;;;31.15
67509;BMP280;54354;44.724;11.284;2023-08-21T05:11:14;102007.97;;;31.20
67509;BMP280;54354;44.724;11.284;2023-08-21T05:13:42;102005.03;;;31.18
67509;BMP280;54354;44.724;11.284;2023-08-21T05:16:10;102007.22;;;31.20
67509;BMP280;54354;44.724;11.284;2023-08-21T05:18:37;102011.47;;;31.21
67509;BMP280;54354;44.724;11.284;2023-08-21T05:21:03;102009.47;;;31.21
67509;BMP280;54354;44.724;11.284;2023-08-21T05:23:29;102016.41;;;31.22
67509;BMP280;54354;44.724;11.284;2023-08-21T05:26:00;102011.16;;;31.24
67509;BMP280;54354;44.724;11.284;2023-08-21T05:28:26;102023.78;;;31.27
67509;BMP280;54354;44.724;11.284;2023-08-21T05:30:51;102025.69;;;31.33
67509;BMP280;54354;44.724;11.284;2023-08-21T05:33:19;102026.91;;;31.32
67509;BMP280;54354;44.724;11.284;2023-08-21T05:35:47;102018.94;;;31.34
67509;BMP280;54354;44.724;11.284;2023-08-21T05:38:12;102024.63;;;31.36
67509;BMP280;54354;44.724;11.284;2023-08-21T05:40:40;102024.63;;;31.36
67509;BMP280;54354;44.724;11.284;2023-08-21T05:43:06;102026.50;;;31.41
67509;BMP280;54354;44.724;11.284;2023-08-21T05:45:31;102024.91;;;31.45
67509;BMP280;54354;44.724;11.284;2023-08-21T05:47:58;102036.06;;;31.47
67509;BMP280;54354;44.724;11.284;2023-08-21T05:50:24;102026.59;;;31.48
67509;BMP280;54354;44.724;11.284;2023-08-21T05:52:49;102029.94;;;31.54
67509;BMP280;54354;44.724;11.284;2023-08-21T05:55:15;102030.16;;;31.56
67509;BMP280;54354;44.724;11.284;2023-08-21T05:57:41;102034.03;;;31.61
67509;BMP280;54354;44.724;11.284;2023-08-21T06:00:07;102032.75;;;31.62
67509;BMP280;54354;44.724;11.284;2023-08-21T06:02:44;102039.63;;;31.69
67509;BMP280;54354;44.724;11.284;2023-08-21T06:05:19;102040.00;;;31.73
67509;BMP280;54354;44.724;11.284;2023-08-21T06:07:48;102037.50;;;31.75
67509;BMP280;54354;44.724;11.284;2023-08-21T06:10:13;102036.41;;;31.78
67509;BMP280;54354;44.724;11.284;2023-08-21T06:12:41;102033.13;;;31.79
67509;BMP280;54354;44.724;11.284;2023-08-21T06:15:08;102036.09;;;31.81
67509;BMP280;54354;44.724;11.284;2023-08-21T06:17:40;102036.69;;;31.87
67509;BMP280;54354;44.724;11.284;2023-08-21T06:20:07;102044.59;;;31.91
67509;BMP280;54354;44.724;11.284;2023-08-21T06:22:37;102046.84;;;32.00
67509;BMP280;54354;44.724;11.284;2023-08-21T06:25:04;102041.38;;;32.00
67509;BMP280;54354;44.724;11.284;2023-08-21T06:27:29;102046.22;;;32.07
67509;BMP280;54354;44.724;11.284;2023-08-21T06:29:55;102047.34;;;32.12
67509;BMP280;54354;44.724;11.284;2023-08-21T06:32:21;102045.75;;;32.16
67509;BMP280;54354;44.724;11.284;2023-08-21T06:34:46;102040.88;;;32.22
67509;BMP280;54354;44.724;11.284;2023-08-21T06:37:12;102057.38;;;32.30
67509;BMP280;54354;44.724;11.284;2023-08-21T06:39:41;102055.91;;;32.50
67509;BMP280;54354;44.724;11.284;2023-08-21T06:42:07;102052.84;;;32.82
67509;BMP280;54354;44.724;11.284;2023-08-21T06:44:40;102064.75;;;33.28
67509;BMP280;54354;44.724;11.284;2023-08-21T06:47:05;102050.47;;;33.73
67509;BMP280;54354;44.724;11.284;2023-08-21T06:49:31;102051.22;;;34.19
67509;BMP280;54354;44.724;11.284;2023-08-21T06:51:56;102063.66;;;34.66
67509;BMP280;54354;44.724;11.284;2023-08-21T06:54:22;102065.19;;;35.07
67509;BMP280;54354;44.724;11.284;2023-08-21T06:56:47;102064.41;;;35.47
67509;BMP280;54354;44.724;11.284;2023-08-21T06:59:13;102064.69;;;35.83
67509;BMP280;54354;44.724;11.284;2023-08-21T07:01:38;102069.59;;;36.17
67509;BMP280;54354;44.724;11.284;2023-08-21T07:04:04;102073.66;;;36.50
67509;BMP280;54354;44.724;11.284;2023-08-21T07:06:30;102065.03;;;36.81
67509;BMP280;54354;44.724;11.284;2023-08-21T07:08:56;102061.88;;;37.11
67509;BMP280;54354;44.724;11.284;2023-08-21T07:11:21;102060.16;;;37.43
67509;BMP280;54354;44.724;11.284;2023-08-21T07:13:47;102060.25;;;37.72
67509;BMP280;54354;44.724;11.284;2023-08-21T07:16:13;102048.38;;;37.98
67509;BMP280;54354;44.724;11.284;2023-08-21T07:18:38;102054.78;;;38.29
67509;BMP280;54354;44.724;11.284;2023-08-21T07:21:04;102058.13;;;38.57
67509;BMP280;54354;44.724;11.284;2023-08-21T07:23:32;102054.28;;;38.81
67509;BMP280;54354;44.724;11.284;2023-08-21T07:25:59;102055.06;;;39.13
67509;BMP280;54354;44.724;11.284;2023-08-21T07:28:25;102053.19;;;39.36
67509;BMP280;54354;44.724;11.284;2023-08-21T07:30:57;102056.84;;;39.60
67509;BMP280;54354;44.724;11.284;2023-08-21T07:33:24;102051.84;;;39.90
67509;BMP280;54354;44.724;11.284;2023-08-21T07:36:00;102048.31;;;40.10
67509;BMP280;54354;44.724;11.284;2023-08-21T07:38:26;102060.34;;;40.36
67509;BMP280;54354;44.724;11.284;2023-08-21T07:41:05;102050.25;;;40.52
67509;BMP280;54354;44.724;11.284;2023-08-21T07:43:31;102052.47;;;40.77
67509;BMP280;54354;44.724;11.284;2023-08-21T07:45:57;102054.75;;;40.92
67509;BMP280;54354;44.724;11.284;2023-08-21T07:48:22;102049.56;;;41.10
67509;BMP280;54354;44.724;11.284;2023-08-21T07:50:54;102041.34;;;41.24
67509;BMP280;54354;44.724;11.284;2023-08-21T07:53:19;102050.81;;;41.44
67509;BMP280;54354;44.724;11.284;2023-08-21T07:55:45;102055.25;;;41.61
67509;BMP280;54354;44.724;11.284;2023-08-21T07:58:11;102052.66;;;41.76
67509;BMP280;54354;44.724;11.284;2023-08-21T08:00:38;102050.69;;;41.91
67509;BMP280;54354;44.724;11.284;2023-08-21T08:03:04;102053.41;;;42.02
67509;BMP280;54354;44.724;11.284;2023-08-21T08:05:31;102051.78;;;42.11
67509;BMP280;54354;44.724;11.284;2023-08-21T08:07:57;102048.81;;;42.20
67509;BMP280;54354;44.724;11.284;2023-08-21T08:10:27;102042.34;;;42.30
67509;BMP280;54354;44.724;11.284;2023-08-21T08:12:52;102044.34;;;42.41
67509;BMP280;54354;44.724;11.284;2023-08-21T08:15:20;102039.81;;;42.47
67509;BMP280;54354;44.724;11.284;2023-08-21T08:17:45;102045.19;;;42.57
67509;BMP280;54354;44.724;11.284;2023-08-21T08:20:12;102034.56;;;42.67
67509;BMP280;54354;44.724;11.284;2023-08-21T08:22:38;102046.84;;;42.76
67509;BMP280;54354;44.724;11.284;2023-08-21T08:25:04;102039.72;;;42.86
67509;BMP280;54354;44.724;11.284;2023-08-21T08:27:31;102039.63;;;42.98
67509;BMP280;54354;44.724;11.284;2023-08-21T08:29:57;102040.03;;;43.06
67509;BMP280;54354;44.724;11.284;2023-08-21T08:32:23;102039.06;;;43.15
67509;BMP280;54354;44.724;11.284;2023-08-21T08:34:48;102028.75;;;43.18
67509;BMP280;54354;44.724;11.284;2023-08-21T08:37:14;102033.59;;;43.17
67509;BMP280;54354;44.724;11.284;2023-08-21T08:39:39;102027.63;;;43.09
67509;BMP280;54354;44.724;11.284;2023-08-21T08:42:06;102034.16;;;42.86
67509;BMP280;54354;44.724;11.284;2023-08-21T08:44:34;102017.53;;;42.47
67509;BMP280;54354;44.724;11.284;2023-08-21T08:47:00;102024.53;;;42.48
67509;BMP280;54354;44.724;11.284;2023-08-21T08:49:26;102014.94;;;41.99
67509;BMP280;54354;44.724;11.284;2023-08-21T08:51:54;102016.31;;;41.61
67509;BMP280;54354;44.724;11.284;2023-08-21T08:54:22;102017.25;;;41.28
67509;BMP280;54354;44.724;11.284;2023-08-21T08:56:50;102027.19;;;41.08
67509;BMP280;54354;44.724;11.284;2023-08-21T08:59:15;102025.91;;;40.86
67509;BMP280;54354;44.724;11.284;2023-08-21T09:01:41;102021.03;;;40.63
67509;BMP280;54354;44.724;11.284;2023-08-21T09:04:07;102021.13;;;40.42
67509;BMP280;54354;44.724;11.284;2023-08-21T09:06:33;102023.50;;;40.24
67509;BMP280;54354;44.724;11.284;2023-08-21T09:08:59;102021.03;;;40.07
67509;BMP280;54354;44.724;11.284;2023-08-21T09:11:25;102015.78;;;39.90
67509;BMP280;54354;44.724;11.284;2023-08-21T09:13:53;102016.78;;;39.73
67509;BMP280;54354;44.724;11.284;2023-08-21T09:16:20;102015.25;;;39.60
67509;BMP280;54354;44.724;11.284;2023-08-21T09:18:50;102002.38;;;39.43
67509;BMP280;54354;44.724;11.284;2023-08-21T09:21:17;102012.22;;;39.35
67509;BMP280;54354;44.724;11.284;2023-08-21T09:23:42;102031.19;;;39.29
67509;BMP280;54354;44.724;11.284;2023-08-21T09:26:09;102019.56;;;39.21
67509;BMP280;54354;44.724;11.284;2023-08-21T09:28:34;102023.69;;;39.20
67509;BMP280;54354;44.724;11.284;2023-08-21T09:31:00;102015.06;;;39.16
67509;BMP280;54354;44.724;11.284;2023-08-21T09:33:27;102025.75;;;39.09
67509;BMP280;54354;44.724;11.284;2023-08-21T09:35:54;102009.31;;;39.02
67509;BMP280;54354;44.724;11.284;2023-08-21T09:38:21;102008.88;;;38.96
67509;BMP280;54354;44.724;11.284;2023-08-21T09:40:54;102004.69;;;38.85
67509;BMP280;54354;44.724;11.284;2023-08-21T09:43:21;101997.13;;;38.86
67509;BMP280;54354;44.724;11.284;2023-08-21T09:45:48;101986.69;;;38.75
67509;BMP280;54354;44.724;11.284;2023-08-21T09:48:14;101998.16;;;38.81
67509;BMP280;54354;44.724;11.284;2023-08-21T09:50:39;101998.03;;;38.79
67509;BMP280;54354;44.724;11.284;2023-08-21T09:53:08;101994.53;;;38.78
67509;BMP280;54354;44.724;11.284;2023-08-21T09:55:35;101991.34;;;38.72
67509;BMP280;54354;44.724;11.284;2023-08-21T09:58:01;101989.75;;;38.69
67509;BMP280;54354;44.724;11.284;2023-08-21T10:00:31;101980.25;;;38.62
67509;BMP280;54354;44.724;11.284;2023-08-21T10:03:11;101978.97;;;38.63
67509;BMP280;54354;44.724;11.284;2023-08-21T10:05:38;101972.06;;;38.74
67509;BMP280;54354;44.724;11.284;2023-08-21T10:08:06;101976.63;;;38.69
67509;BMP280;54354;44.724;11.284;2023-08-21T10:10:33;101984.06;;;38.67
67509;BMP280;54354;44.724;11.284;2023-08-21T10:12:59;101977.50;;;38.62
67509;BMP280;54354;44.724;11.284;2023-08-21T10:15:29;101970.81;;;38.56
67509;BMP280;54354;44.724;11.284;2023-08-21T10:17:55;101977.50;;;38.62
67509;BMP280;54354;44.724;11.284;2023-08-21T10:20:22;101968.63;;;38.64
67509;BMP280;54354;44.724;11.284;2023-08-21T10:22:52;101970.22;;;38.67
67509;BMP280;54354;44.724;11.284;2023-08-21T10:25:22;101970.78;;;38.65
67509;BMP280;54354;44.724;11.284;2023-08-21T10:28:06;101964.22;;;38.70
67509;BMP280;54354;44.724;11.284;2023-08-21T10:30:31;101965.41;;;38.67
67509;BMP280;54354;44.724;11.284;2023-08-21T10:32:58;101954.94;;;38.66
67509;BMP280;54354;44.724;11.284;2023-08-21T10:35:31;101961.31;;;38.68
67509;BMP280;54354;44.724;11.284;2023-08-21T10:40:39;101953.88;;;38.71
67509;BMP280;54354;44.724;11.284;2023-08-21T10:46:19;101959.25;;;38.79
67509;BMP280;54354;44.724;11.284;2023-08-21T10:48:44;101961.47;;;38.70
67509;BMP280;54354;44.724;11.284;2023-08-21T10:51:10;101948.63;;;38.65
67509;BMP280;54354;44.724;11.284;2023-08-21T10:53:38;101955.34;;;38.62
67509;BMP280;54354;44.724;11.284;2023-08-21T10:56:06;101943.41;;;38.60
67509;BMP280;54354;44.724;11.284;2023-08-21T10:58:38;101940.66;;;38.60
67509;BMP280;54354;44.724;11.284;2023-08-21T11:01:06;101945.88;;;38.65
67509;BMP280;54354;44.724;11.284;2023-08-21T11:03:31;101949.41;;;38.66
67509;BMP280;54354;44.724;11.284;2023-08-21T11:06:04;101934.69;;;38.63
67509;BMP280;54354;44.724;11.284;2023-08-21T11:08:32;101939.06;;;38.66
67509;BMP280;54354;44.724;11.284;2023-08-21T11:10:58;101946.00;;;38.67
67509;BMP280;54354;44.724;11.284;2023-08-21T11:13:24;101942.50;;;38.67
67509;BMP280;54354;44.724;11.284;2023-08-21T11:16:00;101931.19;;;38.63
67509;BMP280;54354;44.724;11.284;2023-08-21T11:18:37;101932.16;;;38.67
67509;BMP280;54354;44.724;11.284;2023-08-21T11:21:10;101933.50;;;38.66
67509;BMP280;54354;44.724;11.284;2023-08-21T11:23:38;101932.03;;;38.65
67509;BMP280;54354;44.724;11.284;2023-08-21T11:26:04;101928.53;;;38.65
67509;BMP280;54354;44.724;11.284;2023-08-21T11:28:31;101928.41;;;38.63
67509;BMP280;54354;44.724;11.284;2023-08-21T11:30:57;101931.91;;;38.63
67509;BMP280;54354;44.724;11.284;2023-08-21T11:33:24;101919.97;;;38.61
67509;BMP280;54354;44.724;11.284;2023-08-21T11:35:50;101925.50;;;38.61
67509;BMP280;54354;44.724;11.284;2023-08-21T11:38:20;101924.22;;;38.52
67509;BMP280;54354;44.724;11.284;2023-08-21T11:41:00;101918.41;;;38.48
67509;BMP280;54354;44.724;11.284;2023-08-21T11:43:35;101917.66;;;38.48
67509;BMP280;54354;44.724;11.284;2023-08-21T11:46:05;101917.41;;;38.44
67509;BMP280;54354;44.724;11.284;2023-08-21T11:48:30;101928.34;;;39.03
67509;BMP280;54354;44.724;11.284;2023-08-21T11:50:56;101928.22;;;38.70
67509;BMP280;54354;44.724;11.284;2023-08-21T11:53:33;101926.53;;;38.56
67509;BMP280;54354;44.724;11.284;2023-08-21T11:55:59;101922.47;;;38.57
67509;BMP280;54354;44.724;11.284;2023-08-21T11:58:28;101921.31;;;38.50
67509;BMP280;54354;44.724;11.284;2023-08-21T12:00:54;101918.94;;;38.56
67509;BMP280;54354;44.724;11.284;2023-08-21T12:03:20;101916.53;;;38.51
67509;BMP280;54354;44.724;11.284;2023-08-21T12:05:45;101918.94;;;38.56
67509;BMP280;54354;44.724;11.284;2023-08-21T12:08:11;101912.81;;;38.58
67509;BMP280;54354;44.724;11.284;2023-08-21T12:10:37;101915.16;;;38.61
67509;BMP280;54354;44.724;11.284;2023-08-21T12:13:02;101917.44;;;38.65
67509;BMP280;54354;44.724;11.284;2023-08-21T12:15:28;101913.41;;;38.66
67509;BMP280;54354;44.724;11.284;2023-08-21T12:17:53;101910.75;;;38.68
67509;BMP280;54354;44.724;11.284;2023-08-21T12:20:19;101905.34;;;38.70
67509;BMP280;54354;44.724;11.284;2023-08-21T12:22:45;101904.03;;;38.71
67509;BMP280;54354;44.724;11.284;2023-08-21T12:25:11;101897.19;;;38.72
67509;BMP280;54354;44.724;11.284;2023-08-21T12:27:36;101890.91;;;38.71
67509;BMP280;54354;44.724;11.284;2023-08-21T12:30:03;101895.44;;;38.67
67509;BMP280;54354;44.724;11.284;2023-08-21T12:32:29;101904.22;;;38.63
67509;BMP280;54354;44.724;11.284;2023-08-21T12:34:54;101895.78;;;38.61
67509;BMP280;54354;44.724;11.284;2023-08-21T12:37:20;101895.19;;;38.63
67509;BMP280;54354;44.724;11.284;2023-08-21T12:39:45;101891.81;;;38.64
67509;BMP280;54354;44.724;11.284;2023-08-21T12:42:11;101894.00;;;38.66
67509;BMP280;54354;44.724;11.284;2023-08-21T12:44:36;101887.41;;;38.71
67509;BMP280;54354;44.724;11.284;2023-08-21T12:47:02;101884.31;;;38.77
67509;BMP280;54354;44.724;11.284;2023-08-21T12:49:28;101888.56;;;38.78
67509;BMP280;54354;44.724;11.284;2023-08-21T12:51:53;101885.19;;;38.79
67509;BMP280;54354;44.724;11.284;2023-08-21T12:54:20;101884.47;;;38.79
67509;BMP280;54354;44.724;11.284;2023-08-21T12:56:46;101886.38;;;38.76
67509;BMP280;54354;44.724;11.284;2023-08-21T12:59:13;101873.00;;;38.72
67509;BMP280;54354;44.724;11.284;2023-08-21T13:01:39;101878.38;;;38.70
67509;BMP280;54354;44.724;11.284;2023-08-21T13:04:04;101881.75;;;38.69
67509;BMP280;54354;44.724;11.284;2023-08-21T13:06:30;101874.88;;;38.70
67509;BMP280;54354;44.724;11.284;2023-08-21T13:08:56;101879.25;;;38.73
67509;BMP280;54354;44.724;11.284;2023-08-21T13:11:22;101860.47;;;38.71
67509;BMP280;54354;44.724;11.284;2023-08-21T13:13:47;101855.50;;;38.70
67509;BMP280;54354;44.724;11.284;2023-08-21T13:16:13;101854.19;;;38.71
67509;BMP280;54354;44.724;11.284;2023-08-21T13:18:39;101866.69;;;38.82
67509;BMP280;54354;44.724;11.284;2023-08-21T13:21:04;101866.59;;;38.70
67509;BMP280;54354;44.724;11.284;2023-08-21T13:23:30;101856.69;;;38.36
67509;BMP280;54354;44.724;11.284;2023-08-21T13:25:57;101852.84;;;37.91
67509;BMP280;54354;44.724;11.284;2023-08-21T13:28:25;101843.53;;;37.57
67509;BMP280;54354;44.724;11.284;2023-08-21T13:30:51;101844.97;;;37.20
67509;BMP280;54354;44.724;11.284;2023-08-21T13:33:16;101842.16;;;36.91
67509;BMP280;54354;44.724;11.284;2023-08-21T13:35:46;101838.03;;;36.73
67509;BMP280;54354;44.724;11.284;2023-08-21T13:38:12;101848.44;;;36.65
67509;BMP280;54354;44.724;11.284;2023-08-21T13:40:38;101832.25;;;36.51
67509;BMP280;54354;44.724;11.284;2023-08-21T13:43:04;101835.69;;;36.42
67509;BMP280;54354;44.724;11.284;2023-08-21T13:45:30;101827.38;;;36.33
67509;BMP280;54354;44.724;11.284;2023-08-21T13:47:56;101819.50;;;36.29
67509;BMP280;54354;44.724;11.284;2023-08-21T13:50:22;101818.94;;;36.31